createdAt,value
2023-04-21T00:01:34.250Z,31.77
2023-04-21T00:04:07.357Z,31.93
2023-04-21T00:06:41.323Z,31.90
2023-04-21T00:09:13.530Z,31.74
2023-04-21T00:11:45.757Z,31.82
2023-04-21T00:14:18.052Z,31.99
2023-04-21T00:16:53.502Z,32.03
2023-04-21T00:19:25.933Z,32.11
2023-04-21T00:21:59.409Z,32.30
2023-04-21T00:24:32.552Z,32.26
2023-04-21T00:27:05.506Z,32.45
2023-04-21T00:29:37.618Z,32.63
2023-04-21T00:32:10.289Z,32.79
2023-04-21T00:34:42.508Z,32.78
2023-04-21T00:37:16.244Z,32.96
2023-04-21T00:39:48.422Z,33.00
2023-04-21T00:42:20.851Z,33.19
2023-04-21T00:44:52.998Z,33.07
2023-04-21T00:47:25.666Z,32.81
2023-04-21T00:50:00.141Z,33.24
2023-04-21T00:52:34.322Z,32.87
2023-04-21T00:55:06.996Z,32.76
2023-04-21T00:57:40.263Z,32.70
2023-04-21T01:00:13.854Z,32.83
2023-04-21T01:02:46.801Z,32.64
2023-04-21T01:05:20.065Z,32.83
2023-04-21T01:07:52.239Z,32.84
2023-04-21T01:10:24.451Z,32.63
2023-04-21T01:12:56.525Z,32.82
2023-04-21T01:15:31.158Z,32.84
2023-04-21T01:18:03.751Z,32.77
2023-04-21T01:20:36.267Z,32.79
2023-04-21T01:23:10.101Z,32.98
2023-04-21T01:25:42.194Z,32.77
2023-04-21T01:28:14.291Z,32.97
2023-04-21T01:30:46.416Z,33.17
2023-04-21T01:33:19.520Z,33.24
2023-04-21T01:35:51.971Z,33.27
2023-04-21T01:38:24.470Z,32.96
2023-04-21T01:40:57.573Z,33.22
2023-04-21T01:43:29.569Z,33.34
2023-04-21T01:46:01.811Z,32.82
2023-04-21T01:48:35.001Z,32.81
2023-04-21T01:51:07.192Z,33.17
2023-04-21T01:53:39.300Z,33.11
2023-04-21T01:56:15.047Z,33.30
2023-04-21T01:58:47.240Z,33.20
2023-04-21T02:01:19.360Z,33.30
2023-04-21T02:03:51.493Z,33.60
2023-04-21T02:06:23.706Z,33.37
2023-04-21T02:08:56.003Z,33.52
2023-04-21T02:11:28.050Z,33.48
2023-04-21T02:14:01.099Z,33.65
2023-04-21T02:16:33.296Z,33.58
2023-04-21T02:19:06.486Z,33.83
2023-04-21T02:21:38.630Z,33.68
2023-04-21T02:24:10.897Z,33.55
2023-04-21T02:26:43.271Z,33.76
2023-04-21T02:29:16.865Z,33.97
2023-04-21T02:31:59.332Z,33.94
2023-04-21T02:34:23.027Z,34.00
2023-04-21T02:36:55.251Z,34.05
2023-04-21T02:39:27.496Z,34.27
2023-04-21T02:41:59.665Z,34.34
2023-04-21T02:44:32.318Z,34.09
2023-04-21T02:47:04.626Z,33.73
2023-04-21T02:49:38.183Z,33.84
2023-04-21T02:52:10.673Z,33.83
2023-04-21T02:54:42.748Z,33.61
2023-04-21T02:57:14.979Z,33.52
2023-04-21T02:59:47.582Z,33.62
2023-04-21T03:02:20.148Z,33.64
2023-04-21T03:04:54.153Z,33.41
2023-04-21T03:07:26.348Z,33.21
2023-04-21T03:09:58.492Z,33.19
2023-04-21T03:12:33.421Z,33.12
2023-04-21T03:15:06.491Z,33.07
2023-04-21T03:17:39.288Z,33.16
2023-04-21T03:20:12.887Z,32.85
2023-04-21T03:22:44.977Z,32.69
2023-04-21T03:25:17.496Z,32.76
2023-04-21T03:27:49.859Z,33.12
2023-04-21T03:30:23.383Z,33.03
2023-04-21T03:32:58.988Z,33.04
2023-04-21T03:35:31.048Z,32.64
2023-04-21T03:38:04.265Z,32.93
2023-04-21T03:40:37.132Z,32.82
2023-04-21T03:43:09.231Z,32.57
2023-04-21T03:45:42.442Z,32.53
2023-04-21T03:48:14.558Z,32.40
2023-04-21T03:50:46.561Z,32.86
2023-04-21T03:53:19.316Z,32.45
2023-04-21T03:55:54.623Z,32.34
2023-04-21T03:58:27.673Z,32.24
2023-04-21T04:01:00.530Z,32.24
2023-04-21T04:03:33.015Z,31.70
2023-04-21T04:06:05.202Z,31.66
2023-04-21T04:08:37.596Z,31.78
2023-04-21T04:11:09.665Z,31.69
2023-04-21T04:13:41.966Z,31.33
2023-04-21T04:16:15.971Z,31.68
2023-04-21T04:18:48.243Z,31.31
2023-04-21T04:21:20.925Z,31.12
2023-04-21T04:23:53.481Z,31.37
2023-04-21T04:26:26.279Z,31.27
2023-04-21T04:29:00.604Z,30.70
2023-04-21T04:31:32.956Z,30.93
2023-04-21T04:34:05.185Z,30.58
2023-04-21T04:36:37.680Z,30.75
2023-04-21T04:39:10.484Z,30.55
2023-04-21T04:41:42.830Z,30.53
2023-04-21T04:44:16.590Z,30.47
2023-04-21T04:46:49.999Z,30.05
2023-04-21T04:49:24.196Z,29.92
2023-04-21T04:51:56.623Z,29.85
2023-04-21T04:54:29.304Z,29.86
2023-04-21T04:57:02.476Z,29.72
2023-04-21T04:59:34.884Z,29.21
2023-04-21T05:02:08.589Z,29.47
2023-04-21T05:04:41.040Z,29.31
2023-04-21T05:07:13.256Z,29.17
2023-04-21T05:09:46.499Z,28.90
2023-04-21T05:12:18.876Z,29.16
2023-04-21T05:14:51.171Z,29.02
2023-04-21T05:17:23.448Z,28.69
2023-04-21T05:19:55.879Z,28.12
2023-04-21T05:22:28.466Z,28.11
2023-04-21T05:25:00.673Z,28.25
2023-04-21T05:27:34.613Z,27.90
2023-04-21T05:30:07.028Z,27.71
2023-04-21T05:32:39.582Z,27.45
2023-04-21T05:35:12.412Z,27.53
2023-04-21T05:37:44.623Z,27.51
2023-04-21T05:40:17.118Z,27.59
2023-04-21T05:42:50.185Z,27.16
2023-04-21T05:45:22.444Z,27.35
2023-04-21T05:47:54.788Z,26.42
2023-04-21T05:50:29.581Z,26.66
2023-04-21T05:53:01.411Z,26.78
2023-04-21T05:55:34.889Z,27.02
2023-04-21T05:58:07.278Z,26.51
2023-04-21T06:00:39.940Z,25.93
2023-04-21T06:03:12.158Z,25.65
2023-04-21T06:05:45.348Z,24.69
2023-04-21T06:08:17.866Z,23.84
2023-04-21T06:10:50.096Z,23.60
2023-04-21T06:13:22.521Z,23.14
2023-04-21T06:15:55.489Z,22.73
2023-04-21T06:18:30.511Z,22.35
2023-04-21T06:21:03.030Z,21.12
2023-04-21T06:23:35.509Z,20.15
2023-04-21T06:26:08.802Z,19.49
2023-04-21T06:28:41.292Z,19.31
2023-04-21T06:31:15.190Z,19.40
2023-04-21T06:33:47.705Z,19.32
2023-04-21T06:36:21.520Z,19.15
2023-04-21T06:38:57.184Z,18.89
2023-04-21T06:41:30.032Z,18.41
2023-04-21T06:44:02.577Z,18.46
2023-04-21T06:46:35.614Z,18.17
2023-04-21T06:49:08.791Z,17.66
2023-04-21T06:51:41.225Z,17.71
2023-04-21T06:54:13.690Z,17.26
2023-04-21T06:56:45.898Z,16.43
2023-04-21T06:59:18.784Z,15.40
2023-04-21T07:01:52.578Z,14.98
2023-04-21T07:04:26.807Z,15.14
2023-04-21T07:07:02.416Z,15.55
2023-04-21T07:09:34.185Z,16.00
2023-04-21T07:12:07.521Z,16.68
2023-04-21T07:14:40.615Z,17.50
2023-04-21T07:17:13.089Z,18.38
2023-04-21T07:19:45.881Z,19.23
2023-04-21T07:22:18.564Z,19.93
2023-04-21T07:24:51.577Z,20.46
2023-04-21T07:27:24.136Z,21.03
2023-04-21T07:29:56.876Z,21.41
2023-04-21T07:32:29.065Z,22.29
2023-04-21T07:35:02.144Z,22.29
2023-04-21T07:37:34.462Z,22.09
2023-04-21T07:40:08.200Z,22.27
2023-04-21T07:42:41.069Z,22.79
2023-04-21T07:45:13.973Z,22.21
2023-04-21T07:47:46.695Z,22.56
2023-04-21T07:50:19.413Z,22.56
2023-04-21T07:52:51.561Z,22.57
2023-04-21T07:55:24.153Z,22.54
2023-04-21T07:57:56.801Z,22.52
2023-04-21T08:00:30.245Z,23.04
2023-04-21T08:03:02.814Z,22.89
2023-04-21T08:05:40.036Z,22.41
2023-04-21T08:08:10.209Z,22.18
2023-04-21T08:10:43.309Z,22.26
2023-04-21T08:13:15.656Z,22.12
2023-04-21T08:15:48.844Z,22.27
2023-04-21T08:18:22.798Z,22.23
2023-04-21T08:20:56.974Z,22.47
2023-04-21T08:23:32.372Z,23.41
2023-04-21T08:26:05.412Z,22.83
2023-04-21T08:28:37.615Z,22.94
2023-04-21T08:31:09.902Z,23.23
2023-04-21T08:33:54.018Z,23.17
2023-04-21T08:36:28.507Z,23.23
2023-04-21T08:38:51.188Z,23.26
2023-04-21T08:41:25.466Z,23.35
2023-04-21T08:43:57.786Z,23.86
2023-04-21T08:46:30.504Z,23.70
2023-04-21T08:49:03.379Z,23.92
2023-04-21T08:51:36.055Z,23.87
2023-04-21T08:54:09.286Z,23.93
2023-04-21T08:56:41.932Z,24.12
2023-04-21T08:59:14.567Z,23.86
2023-04-21T09:02:06.310Z,24.28
2023-04-21T09:04:44.367Z,24.75
2023-04-21T09:07:36.732Z,24.84
2023-04-21T09:10:10.064Z,24.70
2023-04-21T09:12:42.440Z,24.63
2023-04-21T09:15:15.313Z,24.77
2023-04-21T09:17:48.732Z,24.58
2023-04-21T09:20:23.352Z,24.53
2023-04-21T09:22:56.037Z,24.50
2023-04-21T09:25:27.904Z,23.98
2023-04-21T09:28:02.481Z,24.72
2023-04-21T09:30:37.195Z,24.45
2023-04-21T09:33:24.434Z,24.73
2023-04-21T09:35:45.994Z,24.69
2023-04-21T09:38:18.424Z,24.48
2023-04-21T09:41:00.626Z,24.92
2023-04-21T09:43:32.807Z,24.34
2023-04-21T09:46:07.380Z,24.83
2023-04-21T09:48:41.637Z,24.83
2023-04-21T09:51:27.272Z,24.66
2023-04-21T09:53:52.748Z,24.29
2023-04-21T09:56:28.950Z,24.47
2023-04-21T09:59:04.187Z,24.99
2023-04-21T10:01:38.262Z,24.72
2023-04-21T10:04:11.161Z,24.61
2023-04-21T10:06:44.288Z,24.51
2023-04-21T10:09:19.497Z,24.12
2023-04-21T10:11:52.462Z,24.12
2023-04-21T10:14:26.256Z,24.71
2023-04-21T10:17:00.795Z,23.96
2023-04-21T10:19:36.081Z,23.78
2023-04-21T10:22:11.620Z,23.45
2023-04-21T10:24:47.579Z,23.55
2023-04-21T10:27:22.804Z,23.09
2023-04-21T10:29:56.794Z,23.09
2023-04-21T10:32:45.985Z,23.51
2023-04-21T10:35:25.743Z,22.94
2023-04-21T10:37:59.994Z,23.02
2023-04-21T10:40:44.280Z,22.81
2023-04-21T10:43:19.491Z,23.11
2023-04-21T10:45:51.662Z,23.33
2023-04-21T10:48:24.645Z,23.59
2023-04-21T10:50:56.713Z,23.80
2023-04-21T10:53:29.770Z,23.62
2023-04-21T10:56:02.695Z,24.49
2023-04-21T10:58:37.276Z,22.86
2023-04-21T11:01:09.685Z,23.01
2023-04-21T11:03:42.403Z,23.22
2023-04-21T11:06:21.082Z,23.13
2023-04-21T11:08:59.805Z,23.01
2023-04-21T11:11:32.266Z,23.07
2023-04-21T11:14:05.240Z,23.45
2023-04-21T11:16:37.979Z,23.67
2023-04-21T11:19:10.943Z,23.62
2023-04-21T11:21:43.324Z,23.80
2023-04-21T11:24:15.662Z,23.80
2023-04-21T11:26:48.030Z,23.76
2023-04-21T11:29:20.442Z,23.70
2023-04-21T11:31:53.958Z,23.70
2023-04-21T11:34:28.133Z,23.40
2023-04-21T11:37:00.060Z,23.08
2023-04-21T11:39:31.881Z,22.82
2023-04-21T11:42:04.396Z,22.39
2023-04-21T11:44:39.305Z,22.55
2023-04-21T11:47:24.787Z,22.71
2023-04-21T11:49:59.312Z,22.37
2023-04-21T11:52:34.533Z,23.26
2023-04-21T11:55:09.577Z,22.36
2023-04-21T11:57:41.210Z,22.76
2023-04-21T12:00:15.560Z,22.36
2023-04-21T12:02:48.448Z,22.24
2023-04-21T12:05:20.688Z,22.24
2023-04-21T12:07:54.506Z,22.40
2023-04-21T12:10:26.635Z,21.67
2023-04-21T12:12:59.184Z,19.79
2023-04-21T12:15:32.229Z,17.07
2023-04-21T12:18:06.926Z,15.11
2023-04-21T12:20:39.749Z,13.23
2023-04-21T12:23:12.401Z,11.97
2023-04-21T12:25:46.023Z,11.24
2023-04-21T12:28:18.398Z,10.74
2023-04-21T12:30:52.078Z,10.11
2023-04-21T12:33:24.856Z,9.21
2023-04-21T12:35:57.958Z,8.47
2023-04-21T12:38:30.268Z,8.09
2023-04-21T12:41:02.947Z,8.37
2023-04-21T12:43:35.527Z,9.42
2023-04-21T12:46:08.218Z,9.86
2023-04-21T12:48:40.678Z,9.54
2023-04-21T12:51:12.689Z,8.72
2023-04-21T12:53:45.478Z,8.19
2023-04-21T12:56:17.618Z,8.68
2023-04-21T12:58:49.814Z,9.96
2023-04-21T13:01:25.971Z,11.46
2023-04-21T13:03:58.397Z,12.63
2023-04-21T13:06:31.292Z,13.66
2023-04-21T13:09:03.423Z,13.44
2023-04-21T13:11:36.401Z,12.63
2023-04-21T13:14:09.019Z,13.07
2023-04-21T13:16:41.525Z,14.04
2023-04-21T13:19:13.788Z,14.67
2023-04-21T13:21:45.849Z,13.80
2023-04-21T13:24:17.937Z,12.06
2023-04-21T13:26:50.159Z,10.49
2023-04-21T13:29:22.531Z,9.21
2023-04-21T13:31:54.806Z,8.51
2023-04-21T13:34:26.984Z,7.84
2023-04-21T13:36:59.270Z,8.02
2023-04-21T13:39:31.836Z,8.53
2023-04-21T13:42:04.327Z,8.92
2023-04-21T13:44:36.851Z,8.77
2023-04-21T13:47:09.822Z,8.36
2023-04-21T13:49:42.303Z,8.25
2023-04-21T13:52:15.201Z,8.07
2023-04-21T13:54:47.852Z,7.87
2023-04-21T13:57:21.059Z,7.57
2023-04-21T13:59:54.622Z,7.42
2023-04-21T14:02:26.716Z,7.77
2023-04-21T14:04:59.815Z,7.74
2023-04-21T14:07:35.116Z,7.72
2023-04-21T14:10:07.909Z,7.44
2023-04-21T14:12:39.817Z,7.50
2023-04-21T14:15:13.506Z,7.59
2023-04-21T14:17:45.689Z,7.62
2023-04-21T14:20:17.915Z,8.30
2023-04-21T14:22:50.103Z,8.56
2023-04-21T14:25:23.080Z,8.47
2023-04-21T14:27:56.094Z,8.47
2023-04-21T14:30:29.417Z,8.43
2023-04-21T14:33:02.755Z,8.46
2023-04-21T14:35:38.291Z,8.46
2023-04-21T14:38:11.746Z,8.33
2023-04-21T14:40:44.200Z,8.25
2023-04-21T14:43:16.659Z,8.20
2023-04-21T14:45:49.726Z,8.33
2023-04-21T14:48:23.196Z,8.48
2023-04-21T14:50:57.592Z,8.55
2023-04-21T14:53:29.049Z,9.43
2023-04-21T14:56:01.109Z,9.61
2023-04-21T14:58:34.190Z,12.06
2023-04-21T15:01:06.750Z,13.52
2023-04-21T15:03:41.449Z,14.68
2023-04-21T15:06:16.549Z,16.11
2023-04-21T15:08:48.912Z,17.21
2023-04-21T15:11:21.313Z,17.94
2023-04-21T15:13:54.074Z,18.76
2023-04-21T15:16:26.711Z,19.44
2023-04-21T15:18:59.771Z,19.90
2023-04-21T15:21:33.377Z,20.40
2023-04-21T15:24:06.607Z,20.69
2023-04-21T15:26:40.361Z,21.18
2023-04-21T15:29:12.853Z,21.39
2023-04-21T15:31:46.566Z,21.63
2023-04-21T15:34:19.258Z,21.92
2023-04-21T15:36:51.825Z,22.24
2023-04-21T15:39:24.757Z,22.76
2023-04-21T15:41:58.910Z,23.49
2023-04-21T15:44:34.505Z,23.92
2023-04-21T15:47:07.446Z,24.25
2023-04-21T15:49:39.903Z,24.68
2023-04-21T15:52:12.400Z,24.78
2023-04-21T15:54:47.078Z,24.97
2023-04-21T15:57:33.904Z,25.34
2023-04-21T16:00:07.757Z,25.39
2023-04-21T16:02:41.171Z,25.90
2023-04-21T16:05:13.638Z,25.84
2023-04-21T16:07:45.821Z,26.34
2023-04-21T16:10:18.114Z,26.52
2023-04-21T16:12:51.108Z,26.53
2023-04-21T16:15:24.760Z,27.03
2023-04-21T16:17:57.522Z,27.03
2023-04-21T16:20:29.816Z,27.24
2023-04-21T16:23:04.309Z,26.99
2023-04-21T16:25:36.584Z,27.23
2023-04-21T16:28:09.931Z,27.61
2023-04-21T16:30:45.277Z,27.61
2023-04-21T16:33:17.774Z,27.84
2023-04-21T16:35:52.008Z,27.90
2023-04-21T16:38:25.316Z,28.09
2023-04-21T16:40:57.984Z,28.00
2023-04-21T16:43:30.350Z,28.09
2023-04-21T16:46:02.462Z,28.23
2023-04-21T16:48:34.945Z,28.37
2023-04-21T16:51:07.557Z,28.40
2023-04-21T16:53:40.350Z,28.40
2023-04-21T16:56:12.744Z,28.77
2023-04-21T16:58:45.343Z,28.86
2023-04-21T17:01:17.825Z,28.86
2023-04-21T17:03:49.955Z,29.12
2023-04-21T17:06:22.421Z,29.22
2023-04-21T17:08:55.936Z,29.47
2023-04-21T17:11:30.111Z,29.55
2023-04-21T17:14:02.981Z,29.60
2023-04-21T17:16:35.593Z,29.79
2023-04-21T17:19:08.016Z,30.36
2023-04-21T17:21:40.300Z,30.11
2023-04-21T17:24:13.439Z,30.31
2023-04-21T17:26:46.051Z,30.51
2023-04-21T17:29:18.149Z,30.72
2023-04-21T17:31:51.747Z,31.25
2023-04-21T17:34:23.899Z,31.35
2023-04-21T17:36:56.313Z,31.47
2023-04-21T17:39:28.886Z,31.50
2023-04-21T17:42:02.800Z,31.69
2023-04-21T17:44:35.402Z,32.22
2023-04-21T17:47:11.489Z,31.93
2023-04-21T17:49:43.741Z,32.48
2023-04-21T17:52:17.076Z,32.67
2023-04-21T17:54:49.312Z,32.71
2023-04-21T17:57:21.421Z,32.94
2023-04-21T17:59:53.553Z,32.96
2023-04-21T18:02:25.928Z,32.97
2023-04-21T18:04:58.152Z,33.08
2023-04-21T18:07:30.096Z,33.31
2023-04-21T18:10:02.427Z,33.36
2023-04-21T18:12:34.703Z,33.43
2023-04-21T18:15:08.091Z,33.74
2023-04-21T18:17:40.580Z,33.83
2023-04-21T18:20:14.529Z,33.77
2023-04-21T18:22:47.229Z,33.97
2023-04-21T18:25:30.620Z,34.09
2023-04-21T18:27:53.768Z,33.96
2023-04-21T18:30:25.536Z,32.46
2023-04-21T18:32:57.672Z,34.30
2023-04-21T18:35:31.972Z,34.66
2023-04-21T18:38:04.346Z,34.63
2023-04-21T18:40:37.683Z,34.63
2023-04-21T18:43:12.372Z,34.80
2023-04-21T18:45:44.863Z,34.99
2023-04-21T18:48:17.030Z,34.98
2023-04-21T18:50:49.036Z,35.19
2023-04-21T18:53:21.204Z,35.32
2023-04-21T18:55:53.953Z,35.53
2023-04-21T18:58:26.516Z,35.35
2023-04-21T19:00:58.822Z,35.82
2023-04-21T19:03:31.466Z,35.72
2023-04-21T19:06:04.285Z,35.99
2023-04-21T19:08:42.597Z,35.98
2023-04-21T19:11:12.013Z,36.00
2023-04-21T19:13:44.313Z,35.80
2023-04-21T19:16:16.723Z,36.04
2023-04-21T19:18:49.107Z,36.39
2023-04-21T19:21:21.578Z,36.32
2023-04-21T19:23:54.981Z,36.80
2023-04-21T19:26:27.766Z,36.51
2023-04-21T19:28:59.987Z,36.62
2023-04-21T19:31:32.257Z,36.64
2023-04-21T19:34:04.279Z,36.95
2023-04-21T19:36:36.678Z,36.74
2023-04-21T19:39:09.513Z,36.82
2023-04-21T19:41:41.669Z,36.71
2023-04-21T19:44:13.762Z,36.77
2023-04-21T19:46:45.936Z,36.68
2023-04-21T19:49:18.224Z,37.05
2023-04-21T19:51:50.953Z,36.95
2023-04-21T19:54:23.035Z,37.05
2023-04-21T19:56:55.359Z,37.23
2023-04-21T19:59:27.502Z,37.11
2023-04-21T20:01:59.982Z,37.03
2023-04-21T20:04:32.723Z,37.23
2023-04-21T20:07:05.092Z,37.25
2023-04-21T20:09:37.494Z,37.37
2023-04-21T20:12:09.843Z,37.48
2023-04-21T20:14:42.038Z,37.94
2023-04-21T20:17:14.587Z,37.63
2023-04-21T20:19:47.001Z,37.83
2023-04-21T20:22:19.033Z,37.67
2023-04-21T20:24:52.205Z,37.96
2023-04-21T20:27:25.101Z,38.09
2023-04-21T20:29:57.157Z,38.33
2023-04-21T20:32:29.656Z,38.29
2023-04-21T20:35:01.710Z,38.45
2023-04-21T20:37:33.983Z,38.59
2023-04-21T20:40:10.896Z,38.67
2023-04-21T20:42:44.564Z,38.84
2023-04-21T20:45:17.428Z,39.01
2023-04-21T20:47:49.707Z,38.85
2023-04-21T20:50:21.886Z,38.92
2023-04-21T20:52:54.120Z,38.92
2023-04-21T20:55:26.173Z,39.00
2023-04-21T20:57:58.500Z,38.90
2023-04-21T21:00:32.180Z,38.92
2023-04-21T21:03:06.195Z,38.97
2023-04-21T21:05:39.079Z,38.86
2023-04-21T21:08:11.352Z,38.63
2023-04-21T21:10:43.469Z,38.92
2023-04-21T21:13:15.846Z,38.74
2023-04-21T21:15:48.240Z,38.63
2023-04-21T21:18:20.571Z,38.00
2023-04-21T21:20:53.274Z,38.10
2023-04-21T21:23:32.988Z,37.92
2023-04-21T21:26:05.496Z,37.92
2023-04-21T21:28:37.581Z,37.59
2023-04-21T21:31:09.573Z,37.38
2023-04-21T21:33:41.726Z,37.52
2023-04-21T21:36:14.138Z,37.41
2023-04-21T21:38:46.410Z,37.57
2023-04-21T21:41:19.840Z,37.24
2023-04-21T21:43:52.016Z,37.26
2023-04-21T21:46:24.444Z,37.48
2023-04-21T21:48:56.591Z,37.35
2023-04-21T21:51:29.281Z,37.40
2023-04-21T21:54:01.394Z,37.10
2023-04-21T21:56:33.632Z,37.38
2023-04-21T21:59:06.561Z,37.41
2023-04-21T22:01:41.450Z,37.35
2023-04-21T22:04:14.018Z,37.39
2023-04-21T22:06:46.222Z,37.42
2023-04-21T22:09:18.708Z,37.47
2023-04-21T22:11:51.201Z,37.72
2023-04-21T22:14:24.158Z,37.81
2023-04-21T22:16:57.633Z,37.88
2023-04-21T22:19:31.635Z,38.06
2023-04-21T22:22:03.830Z,38.36
2023-04-21T22:24:35.942Z,38.58
2023-04-21T22:27:08.539Z,38.85
2023-04-21T22:29:41.175Z,39.13
2023-04-21T22:32:13.610Z,39.61
2023-04-21T22:34:46.310Z,39.85
2023-04-21T22:37:18.571Z,40.16
2023-04-21T22:39:50.952Z,40.30
2023-04-21T22:42:23.201Z,40.54
2023-04-21T22:44:55.515Z,40.79
2023-04-21T22:47:28.134Z,41.07
2023-04-21T22:50:00.509Z,41.25
2023-04-21T22:52:33.387Z,41.54
2023-04-21T22:55:05.968Z,41.67
2023-04-21T22:57:39.143Z,41.93
2023-04-21T23:00:13.484Z,42.13
2023-04-21T23:02:45.791Z,42.49
2023-04-21T23:05:18.370Z,42.68
2023-04-21T23:07:50.405Z,42.78
2023-04-21T23:10:22.603Z,42.82
2023-04-21T23:12:54.653Z,43.02
2023-04-21T23:15:27.758Z,43.12
2023-04-21T23:17:59.963Z,43.11
2023-04-21T23:20:32.584Z,43.21
2023-04-21T23:23:04.919Z,43.25
2023-04-21T23:25:37.279Z,43.45
2023-04-21T23:28:09.478Z,43.36
2023-04-21T23:30:41.655Z,43.40
2023-04-21T23:33:13.981Z,43.52
2023-04-21T23:35:46.168Z,43.65
2023-04-21T23:38:18.385Z,43.86
2023-04-21T23:40:50.340Z,43.85
2023-04-21T23:43:22.660Z,43.92
2023-04-21T23:45:54.947Z,44.05
2023-04-21T23:48:27.417Z,44.20
2023-04-21T23:51:00.458Z,44.47
2023-04-21T23:53:32.473Z,44.59
2023-04-21T23:56:04.696Z,44.75
2023-04-21T23:58:36.885Z,44.63
